sensor_id;sensor_type;location;lat;lon;timestamp;temperature;humidity
75363;DHT22;64122;51.988;5.892;2022-12-07T00:00:14;7.26;72.16
75363;DHT22;64122;51.988;5.892;2022-12-07T00:02:43;7.18;72.28
75363;DHT22;64122;51.988;5.892;2022-12-07T00:05:12;7.08;72.51
75363;DHT22;64122;51.988;5.892;2022-12-07T00:07:42;6.95;72.70
75363;DHT22;64122;51.988;5.892;2022-12-07T00:10:11;6.83;72.96
75363;DHT22;64122;51.988;5.892;2022-12-07T00:12:43;6.74;73.06
75363;DHT22;64122;51.988;5.892;2022-12-07T00:15:12;6.66;73.29
75363;DHT22;64122;51.988;5.892;2022-12-07T00:17:41;6.59;73.42
75363;DHT22;64122;51.988;5.892;2022-12-07T00:20:11;6.53;73.54
75363;DHT22;64122;51.988;5.892;2022-12-07T00:22:40;6.50;73.60
75363;DHT22;64122;51.988;5.892;2022-12-07T00:25:09;6.43;73.65
75363;DHT22;64122;51.988;5.892;2022-12-07T00:27:38;6.41;73.72
75363;DHT22;64122;51.988;5.892;2022-12-07T00:30:11;6.35;73.76
75363;DHT22;64122;51.988;5.892;2022-12-07T00:32:40;6.31;73.80
75363;DHT22;64122;51.988;5.892;2022-12-07T00:35:09;6.31;73.81
75363;DHT22;64122;51.988;5.892;2022-12-07T00:37:39;6.29;73.84
75363;DHT22;64122;51.988;5.892;2022-12-07T00:40:09;6.25;73.93
75363;DHT22;64122;51.988;5.892;2022-12-07T00:42:38;6.23;73.96
75363;DHT22;64122;51.988;5.892;2022-12-07T00:45:11;6.23;73.83
75363;DHT22;64122;51.988;5.892;2022-12-07T00:47:40;6.25;73.91
75363;DHT22;64122;51.988;5.892;2022-12-07T00:50:09;6.30;73.75
75363;DHT22;64122;51.988;5.892;2022-12-07T00:52:38;6.41;73.43
75363;DHT22;64122;51.988;5.892;2022-12-07T00:55:15;6.45;73.25
75363;DHT22;64122;51.988;5.892;2022-12-07T00:57:44;6.41;73.37
75363;DHT22;64122;51.988;5.892;2022-12-07T01:00:16;6.36;73.41
75363;DHT22;64122;51.988;5.892;2022-12-07T01:02:46;6.29;73.63
75363;DHT22;64122;51.988;5.892;2022-12-07T01:05:15;6.24;73.77
75363;DHT22;64122;51.988;5.892;2022-12-07T01:07:44;6.20;73.83
75363;DHT22;64122;51.988;5.892;2022-12-07T01:10:14;6.15;73.93
75363;DHT22;64122;51.988;5.892;2022-12-07T01:12:43;6.11;73.96
75363;DHT22;64122;51.988;5.892;2022-12-07T01:15:15;6.09;73.99
75363;DHT22;64122;51.988;5.892;2022-12-07T01:17:45;6.06;74.02
75363;DHT22;64122;51.988;5.892;2022-12-07T01:20:14;6.05;74.06
75363;DHT22;64122;51.988;5.892;2022-12-07T01:22:44;6.00;74.11
75363;DHT22;64122;51.988;5.892;2022-12-07T01:25:13;5.97;74.18
75363;DHT22;64122;51.988;5.892;2022-12-07T01:27:42;5.96;74.20
75363;DHT22;64122;51.988;5.892;2022-12-07T01:30:13;5.95;74.18
75363;DHT22;64122;51.988;5.892;2022-12-07T01:32:45;5.99;74.02
75363;DHT22;64122;51.988;5.892;2022-12-07T01:35:14;6.04;73.92
75363;DHT22;64122;51.988;5.892;2022-12-07T01:37:43;6.02;73.84
75363;DHT22;64122;51.988;5.892;2022-12-07T01:40:13;6.00;73.89
75363;DHT22;64122;51.988;5.892;2022-12-07T01:42:42;5.96;73.99
75363;DHT22;64122;51.988;5.892;2022-12-07T01:45:36;5.91;73.84
75363;DHT22;64122;51.988;5.892;2022-12-07T01:48:11;5.91;74.04
75363;DHT22;64122;51.988;5.892;2022-12-07T01:50:43;5.89;74.12
75363;DHT22;64122;51.988;5.892;2022-12-07T01:53:14;5.87;74.13
75363;DHT22;64122;51.988;5.892;2022-12-07T01:55:45;5.85;74.16
75363;DHT22;64122;51.988;5.892;2022-12-07T01:58:15;5.81;74.24
75363;DHT22;64122;51.988;5.892;2022-12-07T02:00:45;5.80;74.35
75363;DHT22;64122;51.988;5.892;2022-12-07T02:03:19;5.77;74.28
75363;DHT22;64122;51.988;5.892;2022-12-07T02:05:51;5.74;74.45
75363;DHT22;64122;51.988;5.892;2022-12-07T02:08:21;5.70;74.46
75363;DHT22;64122;51.988;5.892;2022-12-07T02:10:51;5.71;74.44
75363;DHT22;64122;51.988;5.892;2022-12-07T02:13:27;5.69;74.44
75363;DHT22;64122;51.988;5.892;2022-12-07T02:16:09;5.68;74.32
75363;DHT22;64122;51.988;5.892;2022-12-07T02:18:52;5.66;74.33
75363;DHT22;64122;51.988;5.892;2022-12-07T02:21:32;5.63;74.41
75363;DHT22;64122;51.988;5.892;2022-12-07T02:24:15;5.61;74.34
75363;DHT22;64122;51.988;5.892;2022-12-07T02:27:01;5.57;74.36
75363;DHT22;64122;51.988;5.892;2022-12-07T02:29:38;5.54;74.41
75363;DHT22;64122;51.988;5.892;2022-12-07T02:32:13;5.54;74.41
75363;DHT22;64122;51.988;5.892;2022-12-07T02:34:49;5.50;74.38
75363;DHT22;64122;51.988;5.892;2022-12-07T02:37:26;5.49;74.38
75363;DHT22;64122;51.988;5.892;2022-12-07T02:40:00;5.49;74.35
75363;DHT22;64122;51.988;5.892;2022-12-07T02:42:33;5.47;74.35
75363;DHT22;64122;51.988;5.892;2022-12-07T02:45:08;5.45;74.31
75363;DHT22;64122;51.988;5.892;2022-12-07T02:47:39;5.43;74.41
75363;DHT22;64122;51.988;5.892;2022-12-07T02:50:10;5.43;74.38
75363;DHT22;64122;51.988;5.892;2022-12-07T02:52:39;5.42;74.34
75363;DHT22;64122;51.988;5.892;2022-12-07T02:55:09;5.43;74.29
75363;DHT22;64122;51.988;5.892;2022-12-07T02:57:53;5.43;74.14
75363;DHT22;64122;51.988;5.892;2022-12-07T03:00:25;5.46;74.15
75363;DHT22;64122;51.988;5.892;2022-12-07T03:02:58;5.47;74.05
75363;DHT22;64122;51.988;5.892;2022-12-07T03:05:48;5.46;73.95
75363;DHT22;64122;51.988;5.892;2022-12-07T03:08:25;5.50;74.03
75363;DHT22;64122;51.988;5.892;2022-12-07T03:10:59;5.60;73.86
75363;DHT22;64122;51.988;5.892;2022-12-07T03:13:33;5.70;73.54
75363;DHT22;64122;51.988;5.892;2022-12-07T03:16:09;5.77;73.32
75363;DHT22;64122;51.988;5.892;2022-12-07T03:18:43;5.75;73.40
75363;DHT22;64122;51.988;5.892;2022-12-07T03:21:16;5.78;73.34
75363;DHT22;64122;51.988;5.892;2022-12-07T03:23:50;5.79;73.28
75363;DHT22;64122;51.988;5.892;2022-12-07T03:26:22;5.84;73.19
75363;DHT22;64122;51.988;5.892;2022-12-07T03:28:56;5.91;73.03
75363;DHT22;64122;51.988;5.892;2022-12-07T03:31:31;5.98;72.78
75363;DHT22;64122;51.988;5.892;2022-12-07T03:34:06;6.06;72.61
75363;DHT22;64122;51.988;5.892;2022-12-07T03:36:41;6.11;72.51
75363;DHT22;64122;51.988;5.892;2022-12-07T03:39:17;6.14;72.40
75363;DHT22;64122;51.988;5.892;2022-12-07T03:41:49;6.16;72.36
75363;DHT22;64122;51.988;5.892;2022-12-07T03:44:20;6.22;72.26
75363;DHT22;64122;51.988;5.892;2022-12-07T03:47:01;6.27;72.09
75363;DHT22;64122;51.988;5.892;2022-12-07T03:49:39;6.31;71.94
75363;DHT22;64122;51.988;5.892;2022-12-07T03:52:14;6.34;71.86
75363;DHT22;64122;51.988;5.892;2022-12-07T03:54:51;6.34;71.83
75363;DHT22;64122;51.988;5.892;2022-12-07T03:57:21;6.36;71.81
75363;DHT22;64122;51.988;5.892;2022-12-07T03:59:53;6.37;71.73
75363;DHT22;64122;51.988;5.892;2022-12-07T04:02:27;6.38;71.70
75363;DHT22;64122;51.988;5.892;2022-12-07T04:04:56;6.40;71.67
75363;DHT22;64122;51.988;5.892;2022-12-07T04:07:26;6.42;71.58
75363;DHT22;64122;51.988;5.892;2022-12-07T04:09:55;6.40;71.56
75363;DHT22;64122;51.988;5.892;2022-12-07T04:12:24;6.35;71.68
75363;DHT22;64122;51.988;5.892;2022-12-07T04:14:53;6.33;71.80
75363;DHT22;64122;51.988;5.892;2022-12-07T04:17:22;6.35;71.74
75363;DHT22;64122;51.988;5.892;2022-12-07T04:19:54;6.35;71.61
75363;DHT22;64122;51.988;5.892;2022-12-07T04:22:24;6.31;71.69
75363;DHT22;64122;51.988;5.892;2022-12-07T04:24:53;6.33;71.73
75363;DHT22;64122;51.988;5.892;2022-12-07T04:27:22;6.35;71.64
75363;DHT22;64122;51.988;5.892;2022-12-07T04:29:51;6.37;71.59
75363;DHT22;64122;51.988;5.892;2022-12-07T04:32:21;6.39;71.48
75363;DHT22;64122;51.988;5.892;2022-12-07T04:34:51;6.42;71.38
75363;DHT22;64122;51.988;5.892;2022-12-07T04:37:22;6.46;71.22
75363;DHT22;64122;51.988;5.892;2022-12-07T04:39:52;6.54;71.13
75363;DHT22;64122;51.988;5.892;2022-12-07T04:42:21;6.51;71.14
75363;DHT22;64122;51.988;5.892;2022-12-07T04:44:50;6.48;71.21
75363;DHT22;64122;51.988;5.892;2022-12-07T04:47:20;6.45;71.43
75363;DHT22;64122;51.988;5.892;2022-12-07T04:49:49;6.46;71.41
75363;DHT22;64122;51.988;5.892;2022-12-07T04:52:18;6.51;71.39
75363;DHT22;64122;51.988;5.892;2022-12-07T04:54:50;6.54;71.20
75363;DHT22;64122;51.988;5.892;2022-12-07T04:57:19;6.60;71.11
75363;DHT22;64122;51.988;5.892;2022-12-07T04:59:49;6.63;70.97
75363;DHT22;64122;51.988;5.892;2022-12-07T05:02:18;6.54;71.10
75363;DHT22;64122;51.988;5.892;2022-12-07T05:04:47;6.44;71.34
75363;DHT22;64122;51.988;5.892;2022-12-07T05:07:16;6.33;71.66
75363;DHT22;64122;51.988;5.892;2022-12-07T05:09:45;6.22;72.02
75363;DHT22;64122;51.988;5.892;2022-12-07T05:12:17;6.12;72.10
75363;DHT22;64122;51.988;5.892;2022-12-07T05:14:46;6.05;72.32
75363;DHT22;64122;51.988;5.892;2022-12-07T05:17:15;5.99;72.46
75363;DHT22;64122;51.988;5.892;2022-12-07T05:19:45;5.93;72.58
75363;DHT22;64122;51.988;5.892;2022-12-07T05:22:14;5.85;72.70
75363;DHT22;64122;51.988;5.892;2022-12-07T05:24:43;5.79;72.75
75363;DHT22;64122;51.988;5.892;2022-12-07T05:27:12;5.76;72.89
75363;DHT22;64122;51.988;5.892;2022-12-07T05:29:44;5.72;72.83
75363;DHT22;64122;51.988;5.892;2022-12-07T05:32:13;5.74;72.79
75363;DHT22;64122;51.988;5.892;2022-12-07T05:34:42;5.75;72.75
75363;DHT22;64122;51.988;5.892;2022-12-07T05:37:11;5.81;72.66
75363;DHT22;64122;51.988;5.892;2022-12-07T05:39:41;5.92;72.40
75363;DHT22;64122;51.988;5.892;2022-12-07T05:42:10;5.99;72.17
75363;DHT22;64122;51.988;5.892;2022-12-07T05:44:40;6.04;72.04
75363;DHT22;64122;51.988;5.892;2022-12-07T05:47:14;5.98;72.11
75363;DHT22;64122;51.988;5.892;2022-12-07T05:49:43;5.94;72.31
75363;DHT22;64122;51.988;5.892;2022-12-07T05:52:12;5.89;72.46
75363;DHT22;64122;51.988;5.892;2022-12-07T05:54:41;5.83;72.61
75363;DHT22;64122;51.988;5.892;2022-12-07T05:57:10;5.76;72.77
75363;DHT22;64122;51.988;5.892;2022-12-07T05:59:40;5.69;72.88
75363;DHT22;64122;51.988;5.892;2022-12-07T06:02:08;5.66;73.00
75363;DHT22;64122;51.988;5.892;2022-12-07T06:04:42;5.61;73.10
75363;DHT22;64122;51.988;5.892;2022-12-07T06:07:13;5.57;73.24
75363;DHT22;64122;51.988;5.892;2022-12-07T06:09:43;5.52;73.36
75363;DHT22;64122;51.988;5.892;2022-12-07T06:12:13;5.49;73.44
75363;DHT22;64122;51.988;5.892;2022-12-07T06:14:55;5.45;73.57
75363;DHT22;64122;51.988;5.892;2022-12-07T06:17:24;5.40;73.64
75363;DHT22;64122;51.988;5.892;2022-12-07T06:19:56;5.36;73.65
75363;DHT22;64122;51.988;5.892;2022-12-07T06:22:25;5.35;73.75
75363;DHT22;64122;51.988;5.892;2022-12-07T06:24:54;5.34;73.75
75363;DHT22;64122;51.988;5.892;2022-12-07T06:27:23;5.31;73.80
75363;DHT22;64122;51.988;5.892;2022-12-07T06:29:53;5.27;73.81
75363;DHT22;64122;51.988;5.892;2022-12-07T06:32:22;5.25;73.80
75363;DHT22;64122;51.988;5.892;2022-12-07T06:34:51;5.23;73.80
75363;DHT22;64122;51.988;5.892;2022-12-07T06:37:23;5.23;73.74
75363;DHT22;64122;51.988;5.892;2022-12-07T06:39:52;5.21;73.77
75363;DHT22;64122;51.988;5.892;2022-12-07T06:42:22;5.19;73.80
75363;DHT22;64122;51.988;5.892;2022-12-07T06:44:51;5.19;73.74
75363;DHT22;64122;51.988;5.892;2022-12-07T06:47:20;5.18;73.70
75363;DHT22;64122;51.988;5.892;2022-12-07T06:49:49;5.18;73.70
75363;DHT22;64122;51.988;5.892;2022-12-07T06:52:18;5.18;73.64
75363;DHT22;64122;51.988;5.892;2022-12-07T06:54:53;5.19;73.53
75363;DHT22;64122;51.988;5.892;2022-12-07T06:57:26;5.22;73.57
75363;DHT22;64122;51.988;5.892;2022-12-07T06:59:55;5.25;73.44
75363;DHT22;64122;51.988;5.892;2022-12-07T07:02:24;5.27;73.33
75363;DHT22;64122;51.988;5.892;2022-12-07T07:04:53;5.32;73.29
75363;DHT22;64122;51.988;5.892;2022-12-07T07:07:23;5.35;73.12
75363;DHT22;64122;51.988;5.892;2022-12-07T07:09:55;5.36;72.94
75363;DHT22;64122;51.988;5.892;2022-12-07T07:12:24;5.38;72.99
75363;DHT22;64122;51.988;5.892;2022-12-07T07:14:54;5.35;73.10
75363;DHT22;64122;51.988;5.892;2022-12-07T07:17:23;5.34;73.10
75363;DHT22;64122;51.988;5.892;2022-12-07T07:19:52;5.32;73.15
75363;DHT22;64122;51.988;5.892;2022-12-07T07:22:21;5.30;73.20
75363;DHT22;64122;51.988;5.892;2022-12-07T07:24:50;5.27;73.25
75363;DHT22;64122;51.988;5.892;2022-12-07T07:27:22;5.26;73.26
75363;DHT22;64122;51.988;5.892;2022-12-07T07:29:51;5.27;73.27
75363;DHT22;64122;51.988;5.892;2022-12-07T07:32:21;5.26;73.35
75363;DHT22;64122;51.988;5.892;2022-12-07T07:34:50;5.27;73.38
75363;DHT22;64122;51.988;5.892;2022-12-07T07:37:19;5.26;73.30
75363;DHT22;64122;51.988;5.892;2022-12-07T07:39:48;5.27;73.25
75363;DHT22;64122;51.988;5.892;2022-12-07T07:42:17;5.25;73.28
75363;DHT22;64122;51.988;5.892;2022-12-07T07:44:49;5.24;73.28
75363;DHT22;64122;51.988;5.892;2022-12-07T07:47:18;5.25;73.27
75363;DHT22;64122;51.988;5.892;2022-12-07T07:49:48;5.28;73.22
75363;DHT22;64122;51.988;5.892;2022-12-07T07:52:17;5.28;73.15
75363;DHT22;64122;51.988;5.892;2022-12-07T07:54:46;5.28;73.10
75363;DHT22;64122;51.988;5.892;2022-12-07T07:57:16;5.30;73.12
75363;DHT22;64122;51.988;5.892;2022-12-07T07:59:45;5.34;73.06
75363;DHT22;64122;51.988;5.892;2022-12-07T08:02:19;5.37;72.90
75363;DHT22;64122;51.988;5.892;2022-12-07T08:04:48;5.41;72.83
75363;DHT22;64122;51.988;5.892;2022-12-07T08:07:18;5.46;72.72
75363;DHT22;64122;51.988;5.892;2022-12-07T08:09:47;5.48;72.68
75363;DHT22;64122;51.988;5.892;2022-12-07T08:12:16;5.52;72.63
75363;DHT22;64122;51.988;5.892;2022-12-07T08:14:45;5.64;72.38
75363;DHT22;64122;51.988;5.892;2022-12-07T08:17:17;5.82;71.82
75363;DHT22;64122;51.988;5.892;2022-12-07T08:19:46;5.99;71.55
75363;DHT22;64122;51.988;5.892;2022-12-07T08:22:15;6.14;71.20
75363;DHT22;64122;51.988;5.892;2022-12-07T08:24:45;6.33;70.69
75363;DHT22;64122;51.988;5.892;2022-12-07T08:27:14;6.45;70.45
75363;DHT22;64122;51.988;5.892;2022-12-07T08:29:43;6.52;70.17
75363;DHT22;64122;51.988;5.892;2022-12-07T08:32:12;6.51;70.13
75363;DHT22;64122;51.988;5.892;2022-12-07T08:34:44;6.56;70.05
75363;DHT22;64122;51.988;5.892;2022-12-07T08:37:13;6.60;69.99
75363;DHT22;64122;51.988;5.892;2022-12-07T08:39:42;6.69;70.00
75363;DHT22;64122;51.988;5.892;2022-12-07T08:42:12;6.73;70.07
75363;DHT22;64122;51.988;5.892;2022-12-07T08:44:41;6.80;69.88
75363;DHT22;64122;51.988;5.892;2022-12-07T08:47:11;6.76;69.92
75363;DHT22;64122;51.988;5.892;2022-12-07T08:49:44;6.75;69.88
75363;DHT22;64122;51.988;5.892;2022-12-07T08:52:15;6.71;70.08
75363;DHT22;64122;51.988;5.892;2022-12-07T08:54:45;6.66;70.03
75363;DHT22;64122;51.988;5.892;2022-12-07T08:57:14;6.60;70.07
75363;DHT22;64122;51.988;5.892;2022-12-07T08:59:44;6.66;69.97
75363;DHT22;64122;51.988;5.892;2022-12-07T09:02:13;6.94;69.10
75363;DHT22;64122;51.988;5.892;2022-12-07T09:04:44;7.07;68.86
75363;DHT22;64122;51.988;5.892;2022-12-07T09:07:14;7.25;68.51
75363;DHT22;64122;51.988;5.892;2022-12-07T09:09:43;7.46;68.05
75363;DHT22;64122;51.988;5.892;2022-12-07T09:12:15;7.81;66.98
75363;DHT22;64122;51.988;5.892;2022-12-07T09:14:44;8.15;65.85
75363;DHT22;64122;51.988;5.892;2022-12-07T09:17:13;8.01;66.53
75363;DHT22;64122;51.988;5.892;2022-12-07T09:19:45;7.89;66.95
75363;DHT22;64122;51.988;5.892;2022-12-07T09:22:14;7.98;66.97
75363;DHT22;64122;51.988;5.892;2022-12-07T09:24:43;8.44;65.56
75363;DHT22;64122;51.988;5.892;2022-12-07T09:27:13;8.82;64.34
75363;DHT22;64122;51.988;5.892;2022-12-07T09:29:43;8.79;64.57
75363;DHT22;64122;51.988;5.892;2022-12-07T09:32:13;9.18;64.21
75363;DHT22;64122;51.988;5.892;2022-12-07T09:34:45;9.46;63.80
75363;DHT22;64122;51.988;5.892;2022-12-07T09:37:14;9.71;63.07
75363;DHT22;64122;51.988;5.892;2022-12-07T09:39:43;9.90;62.53
75363;DHT22;64122;51.988;5.892;2022-12-07T09:42:24;9.92;62.66
75363;DHT22;64122;51.988;5.892;2022-12-07T09:44:55;9.83;62.75
75363;DHT22;64122;51.988;5.892;2022-12-07T09:47:25;9.78;63.04
75363;DHT22;64122;51.988;5.892;2022-12-07T09:50:03;9.69;63.60
75363;DHT22;64122;51.988;5.892;2022-12-07T09:52:33;9.71;63.16
75363;DHT22;64122;51.988;5.892;2022-12-07T09:55:03;9.65;63.06
75363;DHT22;64122;51.988;5.892;2022-12-07T09:57:32;9.53;63.92
75363;DHT22;64122;51.988;5.892;2022-12-07T10:00:07;9.47;64.05
75363;DHT22;64122;51.988;5.892;2022-12-07T10:02:41;9.37;64.79
75363;DHT22;64122;51.988;5.892;2022-12-07T10:05:16;9.25;65.43
75363;DHT22;64122;51.988;5.892;2022-12-07T10:07:45;9.17;66.11
75363;DHT22;64122;51.988;5.892;2022-12-07T10:10:19;9.11;66.20
75363;DHT22;64122;51.988;5.892;2022-12-07T10:12:54;9.08;66.21
75363;DHT22;64122;51.988;5.892;2022-12-07T10:15:23;9.07;66.08
75363;DHT22;64122;51.988;5.892;2022-12-07T10:18:18;9.00;66.14
75363;DHT22;64122;51.988;5.892;2022-12-07T10:21:00;9.04;65.45
75363;DHT22;64122;51.988;5.892;2022-12-07T10:23:30;8.97;65.30
75363;DHT22;64122;51.988;5.892;2022-12-07T10:26:09;8.90;64.94
75363;DHT22;64122;51.988;5.892;2022-12-07T10:28:48;8.90;64.88
75363;DHT22;64122;51.988;5.892;2022-12-07T10:31:19;8.78;64.62
75363;DHT22;64122;51.988;5.892;2022-12-07T10:33:52;8.67;65.02
75363;DHT22;64122;51.988;5.892;2022-12-07T10:36:27;8.60;64.80
75363;DHT22;64122;51.988;5.892;2022-12-07T10:39:04;8.58;64.98
75363;DHT22;64122;51.988;5.892;2022-12-07T10:41:53;8.64;64.84
75363;DHT22;64122;51.988;5.892;2022-12-07T10:44:24;8.65;64.61
75363;DHT22;64122;51.988;5.892;2022-12-07T10:47:15;8.67;65.30
75363;DHT22;64122;51.988;5.892;2022-12-07T10:50:14;8.82;65.02
75363;DHT22;64122;51.988;5.892;2022-12-07T10:53:02;9.05;64.21
75363;DHT22;64122;51.988;5.892;2022-12-07T10:55:45;9.25;63.40
75363;DHT22;64122;51.988;5.892;2022-12-07T10:58:31;9.26;63.54
75363;DHT22;64122;51.988;5.892;2022-12-07T11:01:10;9.24;63.36
75363;DHT22;64122;51.988;5.892;2022-12-07T11:03:53;9.16;63.52
75363;DHT22;64122;51.988;5.892;2022-12-07T11:06:28;9.04;63.66
75363;DHT22;64122;51.988;5.892;2022-12-07T11:09:16;9.00;63.85
75363;DHT22;64122;51.988;5.892;2022-12-07T11:11:59;8.93;63.92
75363;DHT22;64122;51.988;5.892;2022-12-07T11:14:42;8.83;64.39
75363;DHT22;64122;51.988;5.892;2022-12-07T11:17:17;8.81;64.41
75363;DHT22;64122;51.988;5.892;2022-12-07T11:19:59;8.77;64.68
75363;DHT22;64122;51.988;5.892;2022-12-07T11:22:36;8.72;64.68
75363;DHT22;64122;51.988;5.892;2022-12-07T11:25:20;8.62;64.88
75363;DHT22;64122;51.988;5.892;2022-12-07T11:28:10;8.61;64.89
75363;DHT22;64122;51.988;5.892;2022-12-07T11:30:48;8.57;65.08
75363;DHT22;64122;51.988;5.892;2022-12-07T11:33:24;8.59;65.20
75363;DHT22;64122;51.988;5.892;2022-12-07T11:36:02;8.66;65.17
75363;DHT22;64122;51.988;5.892;2022-12-07T11:38:43;8.72;65.35
75363;DHT22;64122;51.988;5.892;2022-12-07T11:41:16;8.67;65.95
75363;DHT22;64122;51.988;5.892;2022-12-07T11:43:56;8.76;65.57
75363;DHT22;64122;51.988;5.892;2022-12-07T11:46:29;8.67;66.09
75363;DHT22;64122;51.988;5.892;2022-12-07T11:49:08;8.78;65.71
75363;DHT22;64122;51.988;5.892;2022-12-07T11:51:40;8.93;65.27
75363;DHT22;64122;51.988;5.892;2022-12-07T11:54:14;9.03;65.00
75363;DHT22;64122;51.988;5.892;2022-12-07T11:56:49;9.06;64.66
75363;DHT22;64122;51.988;5.892;2022-12-07T11:59:25;9.12;64.72
75363;DHT22;64122;51.988;5.892;2022-12-07T12:02:00;9.07;64.61
75363;DHT22;64122;51.988;5.892;2022-12-07T12:04:47;8.98;64.98
75363;DHT22;64122;51.988;5.892;2022-12-07T12:07:21;8.89;64.37
75363;DHT22;64122;51.988;5.892;2022-12-07T12:09:52;8.66;65.17
75363;DHT22;64122;51.988;5.892;2022-12-07T12:12:45;8.61;64.98
75363;DHT22;64122;51.988;5.892;2022-12-07T12:15:30;8.53;64.95
75363;DHT22;64122;51.988;5.892;2022-12-07T12:18:18;8.53;65.35
75363;DHT22;64122;51.988;5.892;2022-12-07T12:20:55;8.63;65.04
75363;DHT22;64122;51.988;5.892;2022-12-07T12:23:33;8.78;64.73
75363;DHT22;64122;51.988;5.892;2022-12-07T12:26:06;8.92;64.30
75363;DHT22;64122;51.988;5.892;2022-12-07T12:28:41;9.00;64.42
75363;DHT22;64122;51.988;5.892;2022-12-07T12:31:32;9.04;64.42
75363;DHT22;64122;51.988;5.892;2022-12-07T12:34:29;9.08;64.34
75363;DHT22;64122;51.988;5.892;2022-12-07T12:36:56;9.17;64.24
75363;DHT22;64122;51.988;5.892;2022-12-07T12:39:26;9.40;63.71
75363;DHT22;64122;51.988;5.892;2022-12-07T12:41:57;9.72;63.02
75363;DHT22;64122;51.988;5.892;2022-12-07T12:47:41;10.43;61.52
75363;DHT22;64122;51.988;5.892;2022-12-07T12:50:19;10.63;60.78
75363;DHT22;64122;51.988;5.892;2022-12-07T12:52:54;10.65;60.69
75363;DHT22;64122;51.988;5.892;2022-12-07T12:58:37;10.37;61.81
75363;DHT22;64122;51.988;5.892;2022-12-07T13:04:27;10.05;62.01
75363;DHT22;64122;51.988;5.892;2022-12-07T13:06:57;9.93;61.46
75363;DHT22;64122;51.988;5.892;2022-12-07T13:09:31;9.80;61.66
75363;DHT22;64122;51.988;5.892;2022-12-07T13:12:04;10.03;61.21
75363;DHT22;64122;51.988;5.892;2022-12-07T13:14:53;10.37;60.46
75363;DHT22;64122;51.988;5.892;2022-12-07T13:23:29;10.03;61.57
75363;DHT22;64122;51.988;5.892;2022-12-07T13:26:16;9.98;61.92
75363;DHT22;64122;51.988;5.892;2022-12-07T13:28:47;10.01;61.59
75363;DHT22;64122;51.988;5.892;2022-12-07T13:31:32;9.98;61.73
75363;DHT22;64122;51.988;5.892;2022-12-07T13:34:03;10.03;61.22
75363;DHT22;64122;51.988;5.892;2022-12-07T13:36:37;9.94;61.25
75363;DHT22;64122;51.988;5.892;2022-12-07T13:39:18;9.88;61.64
75363;DHT22;64122;51.988;5.892;2022-12-07T13:41:53;9.82;61.75
75363;DHT22;64122;51.988;5.892;2022-12-07T13:44:24;9.81;61.76
75363;DHT22;64122;51.988;5.892;2022-12-07T13:47:00;9.81;61.35
75363;DHT22;64122;51.988;5.892;2022-12-07T13:49:32;9.82;61.28
75363;DHT22;64122;51.988;5.892;2022-12-07T13:52:17;9.89;61.41
75363;DHT22;64122;51.988;5.892;2022-12-07T13:54:49;9.93;60.64
75363;DHT22;64122;51.988;5.892;2022-12-07T13:57:21;9.93;60.49
75363;DHT22;64122;51.988;5.892;2022-12-07T13:59:51;9.99;60.55
75363;DHT22;64122;51.988;5.892;2022-12-07T14:02:22;10.03;60.71
75363;DHT22;64122;51.988;5.892;2022-12-07T14:05:07;9.85;61.05
75363;DHT22;64122;51.988;5.892;2022-12-07T14:07:49;9.78;61.52
75363;DHT22;64122;51.988;5.892;2022-12-07T14:10:26;9.74;61.73
75363;DHT22;64122;51.988;5.892;2022-12-07T14:12:59;9.66;61.75
75363;DHT22;64122;51.988;5.892;2022-12-07T14:15:32;9.41;61.76
75363;DHT22;64122;51.988;5.892;2022-12-07T14:18:02;8.96;62.14
75363;DHT22;64122;51.988;5.892;2022-12-07T14:20:34;8.66;63.15
75363;DHT22;64122;51.988;5.892;2022-12-07T14:23:04;8.51;63.79
75363;DHT22;64122;51.988;5.892;2022-12-07T14:25:48;8.42;64.15
75363;DHT22;64122;51.988;5.892;2022-12-07T14:28:29;8.33;64.22
75363;DHT22;64122;51.988;5.892;2022-12-07T14:30:58;8.21;64.66
75363;DHT22;64122;51.988;5.892;2022-12-07T14:33:28;8.08;65.00
75363;DHT22;64122;51.988;5.892;2022-12-07T14:35:58;7.96;65.49
75363;DHT22;64122;51.988;5.892;2022-12-07T14:38:27;7.89;65.82
75363;DHT22;64122;51.988;5.892;2022-12-07T14:40:56;7.85;66.10
75363;DHT22;64122;51.988;5.892;2022-12-07T14:43:49;7.85;66.23
75363;DHT22;64122;51.988;5.892;2022-12-07T14:46:18;7.90;66.38
75363;DHT22;64122;51.988;5.892;2022-12-07T14:48:48;7.90;66.58
75363;DHT22;64122;51.988;5.892;2022-12-07T14:51:17;7.90;66.75
75363;DHT22;64122;51.988;5.892;2022-12-07T14:53:49;7.94;67.09
75363;DHT22;64122;51.988;5.892;2022-12-07T14:56:19;7.97;67.26
75363;DHT22;64122;51.988;5.892;2022-12-07T14:58:51;8.02;67.02
75363;DHT22;64122;51.988;5.892;2022-12-07T15:01:20;8.09;66.73
75363;DHT22;64122;51.988;5.892;2022-12-07T15:03:49;8.13;67.01
75363;DHT22;64122;51.988;5.892;2022-12-07T15:06:19;8.17;66.67
75363;DHT22;64122;51.988;5.892;2022-12-07T15:08:48;8.19;66.58
75363;DHT22;64122;51.988;5.892;2022-12-07T15:11:18;8.17;66.75
75363;DHT22;64122;51.988;5.892;2022-12-07T15:13:49;8.16;66.91
75363;DHT22;64122;51.988;5.892;2022-12-07T15:16:31;8.14;67.15
75363;DHT22;64122;51.988;5.892;2022-12-07T15:19:00;8.13;67.05
75363;DHT22;64122;51.988;5.892;2022-12-07T15:21:30;8.11;67.29
75363;DHT22;64122;51.988;5.892;2022-12-07T15:23:59;8.07;67.51
75363;DHT22;64122;51.988;5.892;2022-12-07T15:26:28;8.06;67.53
75363;DHT22;64122;51.988;5.892;2022-12-07T15:29:00;8.03;67.68
75363;DHT22;64122;51.988;5.892;2022-12-07T15:31:29;8.03;67.62
75363;DHT22;64122;51.988;5.892;2022-12-07T15:33:59;7.99;67.85
75363;DHT22;64122;51.988;5.892;2022-12-07T15:36:30;7.99;68.01
75363;DHT22;64122;51.988;5.892;2022-12-07T15:39:00;7.94;68.12
75363;DHT22;64122;51.988;5.892;2022-12-07T15:41:30;7.93;68.46
75363;DHT22;64122;51.988;5.892;2022-12-07T15:44:02;7.89;68.35
75363;DHT22;64122;51.988;5.892;2022-12-07T15:46:43;7.86;68.35
75363;DHT22;64122;51.988;5.892;2022-12-07T15:49:15;7.81;68.12
75363;DHT22;64122;51.988;5.892;2022-12-07T15:51:45;7.79;68.49
75363;DHT22;64122;51.988;5.892;2022-12-07T15:54:19;7.81;68.45
75363;DHT22;64122;51.988;5.892;2022-12-07T15:56:48;7.85;68.13
75363;DHT22;64122;51.988;5.892;2022-12-07T15:59:21;7.85;68.32
75363;DHT22;64122;51.988;5.892;2022-12-07T16:01:50;7.91;68.26
75363;DHT22;64122;51.988;5.892;2022-12-07T16:04:19;7.93;68.12
75363;DHT22;64122;51.988;5.892;2022-12-07T16:06:49;7.97;68.06
75363;DHT22;64122;51.988;5.892;2022-12-07T16:09:19;8.00;68.01
75363;DHT22;64122;51.988;5.892;2022-12-07T16:11:48;8.01;67.96
75363;DHT22;64122;51.988;5.892;2022-12-07T16:14:21;8.00;68.23
75363;DHT22;64122;51.988;5.892;2022-12-07T16:16:50;8.02;68.23
75363;DHT22;64122;51.988;5.892;2022-12-07T16:19:19;8.03;68.17
75363;DHT22;64122;51.988;5.892;2022-12-07T16:21:49;8.04;68.22
75363;DHT22;64122;51.988;5.892;2022-12-07T16:24:18;8.01;67.59
75363;DHT22;64122;51.988;5.892;2022-12-07T16:26:48;7.97;67.68
75363;DHT22;64122;51.988;5.892;2022-12-07T16:29:20;7.97;67.77
75363;DHT22;64122;51.988;5.892;2022-12-07T16:31:51;7.93;67.72
75363;DHT22;64122;51.988;5.892;2022-12-07T16:34:21;7.89;67.71